sensor_id;sensor_type;location;lat;lon;timestamp;P1;durP1;ratioP1;P2;durP2;ratioP2
46216;SDS011;47258;59.424;13.482;2024-03-07T00:01:47;4.90;;;2.22;;
46216;SDS011;47258;59.424;13.482;2024-03-07T00:08:38;7.75;;;2.55;;
46216;SDS011;47258;59.424;13.482;2024-03-07T00:28:57;6.25;;;2.72;;
46216;SDS011;47258;59.424;13.482;2024-03-07T00:32:03;5.68;;;3.22;;
46216;SDS011;47258;59.424;13.482;2024-03-07T00:34:35;5.90;;;3.40;;
46216;SDS011;47258;59.424;13.482;2024-03-07T00:37:02;5.07;;;3.55;;
46216;SDS011;47258;59.424;13.482;2024-03-07T00:39:33;5.60;;;2.37;;
46216;SDS011;47258;59.424;13.482;2024-03-07T00:42:02;3.45;;;2.28;;
46216;SDS011;47258;59.424;13.482;2024-03-07T00:44:35;8.05;;;2.58;;
46216;SDS011;47258;59.424;13.482;2024-03-07T00:47:02;3.70;;;2.50;;
46216;SDS011;47258;59.424;13.482;2024-03-07T00:49:33;3.03;;;2.42;;
46216;SDS011;47258;59.424;13.482;2024-03-07T00:52:00;6.05;;;2.58;;
46216;SDS011;47258;59.424;13.482;2024-03-07T00:54:27;5.22;;;2.92;;
46216;SDS011;47258;59.424;13.482;2024-03-07T00:56:54;6.97;;;2.50;;
46216;SDS011;47258;59.424;13.482;2024-03-07T00:59:22;4.32;;;2.42;;
46216;SDS011;47258;59.424;13.482;2024-03-07T01:02:08;6.57;;;4.13;;
46216;SDS011;47258;59.424;13.482;2024-03-07T01:04:34;4.47;;;2.50;;
46216;SDS011;47258;59.424;13.482;2024-03-07T01:07:00;3.42;;;2.20;;
46216;SDS011;47258;59.424;13.482;2024-03-07T01:09:29;7.47;;;2.40;;
46216;SDS011;47258;59.424;13.482;2024-03-07T01:11:58;3.78;;;2.30;;
46216;SDS011;47258;59.424;13.482;2024-03-07T01:14:29;4.15;;;2.88;;
46216;SDS011;47258;59.424;13.482;2024-03-07T01:17:00;3.33;;;2.50;;
46216;SDS011;47258;59.424;13.482;2024-03-07T01:19:33;9.48;;;3.05;;
46216;SDS011;47258;59.424;13.482;2024-03-07T01:21:59;3.63;;;2.55;;
46216;SDS011;47258;59.424;13.482;2024-03-07T01:24:29;7.55;;;3.38;;
46216;SDS011;47258;59.424;13.482;2024-03-07T01:27:01;7.78;;;3.50;;
46216;SDS011;47258;59.424;13.482;2024-03-07T01:29:28;6.10;;;3.00;;
46216;SDS011;47258;59.424;13.482;2024-03-07T01:31:54;2.40;;;2.17;;
46216;SDS011;47258;59.424;13.482;2024-03-07T01:34:20;5.43;;;2.70;;
46216;SDS011;47258;59.424;13.482;2024-03-07T01:36:59;3.85;;;3.03;;
46216;SDS011;47258;59.424;13.482;2024-03-07T01:39:26;3.83;;;3.00;;
46216;SDS011;47258;59.424;13.482;2024-03-07T01:41:55;4.60;;;2.63;;
46216;SDS011;47258;59.424;13.482;2024-03-07T01:44:27;3.47;;;2.70;;
46216;SDS011;47258;59.424;13.482;2024-03-07T01:46:59;5.45;;;2.90;;
46216;SDS011;47258;59.424;13.482;2024-03-07T01:49:30;7.00;;;3.70;;
46216;SDS011;47258;59.424;13.482;2024-03-07T01:52:02;8.60;;;3.70;;
46216;SDS011;47258;59.424;13.482;2024-03-07T01:54:31;4.10;;;2.90;;
46216;SDS011;47258;59.424;13.482;2024-03-07T01:57:07;7.38;;;3.22;;
46216;SDS011;47258;59.424;13.482;2024-03-07T01:59:37;6.43;;;3.45;;
46216;SDS011;47258;59.424;13.482;2024-03-07T02:02:04;3.70;;;2.50;;
46216;SDS011;47258;59.424;13.482;2024-03-07T02:04:34;5.40;;;3.70;;
46216;SDS011;47258;59.424;13.482;2024-03-07T02:07:00;4.73;;;3.57;;
46216;SDS011;47258;59.424;13.482;2024-03-07T02:09:26;3.58;;;2.78;;
46216;SDS011;47258;59.424;13.482;2024-03-07T02:11:58;6.75;;;2.78;;
46216;SDS011;47258;59.424;13.482;2024-03-07T02:14:30;10.32;;;2.95;;
46216;SDS011;47258;59.424;13.482;2024-03-07T02:16:58;9.45;;;3.47;;
46216;SDS011;47258;59.424;13.482;2024-03-07T02:19:24;3.97;;;2.80;;
46216;SDS011;47258;59.424;13.482;2024-03-07T02:21:51;4.53;;;3.00;;
46216;SDS011;47258;59.424;13.482;2024-03-07T02:24:37;10.27;;;3.50;;
46216;SDS011;47258;59.424;13.482;2024-03-07T02:27:07;7.88;;;3.35;;
46216;SDS011;47258;59.424;13.482;2024-03-07T02:32:25;6.32;;;3.03;;
46216;SDS011;47258;59.424;13.482;2024-03-07T02:35:01;5.75;;;3.35;;
46216;SDS011;47258;59.424;13.482;2024-03-07T02:37:59;5.53;;;2.92;;
46216;SDS011;47258;59.424;13.482;2024-03-07T02:40:30;6.30;;;3.80;;
46216;SDS011;47258;59.424;13.482;2024-03-07T02:43:04;7.82;;;2.78;;
46216;SDS011;47258;59.424;13.482;2024-03-07T02:45:43;5.78;;;3.05;;
46216;SDS011;47258;59.424;13.482;2024-03-07T02:48:33;9.27;;;3.60;;
46216;SDS011;47258;59.424;13.482;2024-03-07T02:51:09;5.32;;;3.38;;
46216;SDS011;47258;59.424;13.482;2024-03-07T02:53:41;10.50;;;2.78;;
46216;SDS011;47258;59.424;13.482;2024-03-07T02:56:14;3.55;;;2.78;;
46216;SDS011;47258;59.424;13.482;2024-03-07T02:58:49;3.70;;;2.92;;
46216;SDS011;47258;59.424;13.482;2024-03-07T03:04:10;8.20;;;4.15;;
46216;SDS011;47258;59.424;13.482;2024-03-07T03:06:40;7.45;;;5.15;;
46216;SDS011;47258;59.424;13.482;2024-03-07T03:09:17;6.25;;;2.83;;
46216;SDS011;47258;59.424;13.482;2024-03-07T03:11:59;12.63;;;3.20;;
46216;SDS011;47258;59.424;13.482;2024-03-07T03:14:33;7.70;;;3.90;;
46216;SDS011;47258;59.424;13.482;2024-03-07T03:17:42;5.43;;;3.13;;
46216;SDS011;47258;59.424;13.482;2024-03-07T03:20:08;11.20;;;4.68;;
46216;SDS011;47258;59.424;13.482;2024-03-07T03:22:47;5.28;;;3.08;;
46216;SDS011;47258;59.424;13.482;2024-03-07T03:25:15;4.30;;;3.30;;
46216;SDS011;47258;59.424;13.482;2024-03-07T03:27:41;5.22;;;3.20;;
46216;SDS011;47258;59.424;13.482;2024-03-07T03:30:07;4.70;;;3.13;;
46216;SDS011;47258;59.424;13.482;2024-03-07T03:32:33;9.70;;;3.78;;
46216;SDS011;47258;59.424;13.482;2024-03-07T03:34:59;5.55;;;3.05;;
46216;SDS011;47258;59.424;13.482;2024-03-07T03:37:25;7.03;;;3.20;;
46216;SDS011;47258;59.424;13.482;2024-03-07T03:39:51;6.00;;;4.55;;
46216;SDS011;47258;59.424;13.482;2024-03-07T03:42:17;6.63;;;3.58;;
46216;SDS011;47258;59.424;13.482;2024-03-07T03:44:42;9.13;;;3.78;;
46216;SDS011;47258;59.424;13.482;2024-03-07T03:47:08;7.63;;;3.10;;
46216;SDS011;47258;59.424;13.482;2024-03-07T03:49:35;4.97;;;3.65;;
46216;SDS011;47258;59.424;13.482;2024-03-07T03:52:02;5.43;;;3.05;;
46216;SDS011;47258;59.424;13.482;2024-03-07T03:54:27;5.55;;;3.65;;
46216;SDS011;47258;59.424;13.482;2024-03-07T03:56:54;5.53;;;3.38;;
46216;SDS011;47258;59.424;13.482;2024-03-07T03:59:20;9.05;;;4.20;;
46216;SDS011;47258;59.424;13.482;2024-03-07T04:01:46;11.80;;;4.35;;
46216;SDS011;47258;59.424;13.482;2024-03-07T04:04:13;7.15;;;3.30;;
46216;SDS011;47258;59.424;13.482;2024-03-07T04:06:39;7.85;;;3.42;;
46216;SDS011;47258;59.424;13.482;2024-03-07T04:09:05;7.72;;;3.88;;
46216;SDS011;47258;59.424;13.482;2024-03-07T04:11:31;14.68;;;4.00;;
46216;SDS011;47258;59.424;13.482;2024-03-07T04:13:57;6.63;;;3.60;;
46216;SDS011;47258;59.424;13.482;2024-03-07T04:16:23;6.25;;;3.42;;
46216;SDS011;47258;59.424;13.482;2024-03-07T04:18:49;4.38;;;3.15;;
46216;SDS011;47258;59.424;13.482;2024-03-07T04:21:15;8.80;;;3.92;;
46216;SDS011;47258;59.424;13.482;2024-03-07T04:23:41;5.75;;;4.05;;
46216;SDS011;47258;59.424;13.482;2024-03-07T04:26:07;5.97;;;3.58;;
46216;SDS011;47258;59.424;13.482;2024-03-07T04:28:33;9.18;;;3.90;;
46216;SDS011;47258;59.424;13.482;2024-03-07T04:31:04;11.13;;;3.42;;
46216;SDS011;47258;59.424;13.482;2024-03-07T04:33:30;8.38;;;3.40;;
46216;SDS011;47258;59.424;13.482;2024-03-07T04:35:55;5.97;;;3.45;;
46216;SDS011;47258;59.424;13.482;2024-03-07T04:38:21;7.65;;;4.32;;
46216;SDS011;47258;59.424;13.482;2024-03-07T04:40:47;10.55;;;3.20;;
46216;SDS011;47258;59.424;13.482;2024-03-07T04:43:13;6.63;;;4.18;;
46216;SDS011;47258;59.424;13.482;2024-03-07T04:45:40;5.20;;;3.35;;
46216;SDS011;47258;59.424;13.482;2024-03-07T04:48:08;7.90;;;3.90;;
46216;SDS011;47258;59.424;13.482;2024-03-07T04:50:34;7.28;;;3.95;;
46216;SDS011;47258;59.424;13.482;2024-03-07T04:53:02;8.18;;;3.40;;
46216;SDS011;47258;59.424;13.482;2024-03-07T04:55:30;5.97;;;3.80;;
46216;SDS011;47258;59.424;13.482;2024-03-07T04:57:56;6.43;;;3.88;;
46216;SDS011;47258;59.424;13.482;2024-03-07T05:00:22;8.10;;;3.55;;
46216;SDS011;47258;59.424;13.482;2024-03-07T05:02:49;9.68;;;4.32;;
46216;SDS011;47258;59.424;13.482;2024-03-07T05:05:15;6.40;;;3.90;;
46216;SDS011;47258;59.424;13.482;2024-03-07T05:07:48;8.93;;;4.65;;
46216;SDS011;47258;59.424;13.482;2024-03-07T05:12:42;10.15;;;4.65;;
46216;SDS011;47258;59.424;13.482;2024-03-07T05:15:08;7.30;;;3.63;;
46216;SDS011;47258;59.424;13.482;2024-03-07T05:17:35;9.20;;;4.50;;
46216;SDS011;47258;59.424;13.482;2024-03-07T05:20:04;8.77;;;4.13;;
46216;SDS011;47258;59.424;13.482;2024-03-07T05:22:35;11.77;;;4.68;;
46216;SDS011;47258;59.424;13.482;2024-03-07T05:25:05;8.32;;;4.50;;
46216;SDS011;47258;59.424;13.482;2024-03-07T05:27:32;9.30;;;4.25;;
46216;SDS011;47258;59.424;13.482;2024-03-07T05:29:58;7.78;;;4.25;;
46216;SDS011;47258;59.424;13.482;2024-03-07T05:32:25;10.70;;;4.55;;
46216;SDS011;47258;59.424;13.482;2024-03-07T05:34:52;5.25;;;3.45;;
46216;SDS011;47258;59.424;13.482;2024-03-07T05:37:22;12.82;;;4.53;;
46216;SDS011;47258;59.424;13.482;2024-03-07T05:39:51;9.20;;;4.13;;
46216;SDS011;47258;59.424;13.482;2024-03-07T05:42:19;13.40;;;4.10;;
46216;SDS011;47258;59.424;13.482;2024-03-07T05:44:50;14.77;;;5.90;;
46216;SDS011;47258;59.424;13.482;2024-03-07T05:47:16;10.57;;;4.30;;
46216;SDS011;47258;59.424;13.482;2024-03-07T05:49:42;14.15;;;5.03;;
46216;SDS011;47258;59.424;13.482;2024-03-07T05:52:10;12.95;;;5.15;;
46216;SDS011;47258;59.424;13.482;2024-03-07T05:54:37;18.40;;;4.30;;
46216;SDS011;47258;59.424;13.482;2024-03-07T05:57:03;9.30;;;5.15;;
46216;SDS011;47258;59.424;13.482;2024-03-07T05:59:32;14.20;;;5.50;;
46216;SDS011;47258;59.424;13.482;2024-03-07T06:01:58;14.30;;;5.15;;
46216;SDS011;47258;59.424;13.482;2024-03-07T06:04:26;11.75;;;4.88;;
46216;SDS011;47258;59.424;13.482;2024-03-07T06:06:52;12.15;;;5.30;;
46216;SDS011;47258;59.424;13.482;2024-03-07T06:09:18;10.27;;;4.22;;
46216;SDS011;47258;59.424;13.482;2024-03-07T06:11:46;9.50;;;4.57;;
46216;SDS011;47258;59.424;13.482;2024-03-07T06:14:13;8.80;;;4.22;;
46216;SDS011;47258;59.424;13.482;2024-03-07T06:16:41;10.75;;;4.80;;
46216;SDS011;47258;59.424;13.482;2024-03-07T06:19:08;10.85;;;5.47;;
46216;SDS011;47258;59.424;13.482;2024-03-07T06:21:35;13.40;;;4.65;;
46216;SDS011;47258;59.424;13.482;2024-03-07T06:24:04;18.30;;;5.55;;
46216;SDS011;47258;59.424;13.482;2024-03-07T06:26:32;15.10;;;4.75;;
46216;SDS011;47258;59.424;13.482;2024-03-07T06:29:23;10.55;;;4.95;;
46216;SDS011;47258;59.424;13.482;2024-03-07T06:31:49;12.07;;;5.20;;
46216;SDS011;47258;59.424;13.482;2024-03-07T06:34:15;10.00;;;5.30;;
46216;SDS011;47258;59.424;13.482;2024-03-07T06:36:42;8.27;;;4.40;;
46216;SDS011;47258;59.424;13.482;2024-03-07T06:39:08;13.55;;;5.70;;
46216;SDS011;47258;59.424;13.482;2024-03-07T06:41:37;10.18;;;5.45;;
46216;SDS011;47258;59.424;13.482;2024-03-07T06:44:04;11.60;;;5.60;;
46216;SDS011;47258;59.424;13.482;2024-03-07T06:46:30;8.65;;;5.10;;
46216;SDS011;47258;59.424;13.482;2024-03-07T06:48:59;16.38;;;6.57;;
46216;SDS011;47258;59.424;13.482;2024-03-07T06:51:25;9.65;;;5.22;;
46216;SDS011;47258;59.424;13.482;2024-03-07T06:53:51;8.82;;;5.65;;
46216;SDS011;47258;59.424;13.482;2024-03-07T06:56:17;8.98;;;5.88;;
46216;SDS011;47258;59.424;13.482;2024-03-07T06:58:43;10.30;;;5.07;;
46216;SDS011;47258;59.424;13.482;2024-03-07T07:01:13;6.95;;;4.68;;
46216;SDS011;47258;59.424;13.482;2024-03-07T07:03:40;9.60;;;5.13;;
46216;SDS011;47258;59.424;13.482;2024-03-07T07:06:12;7.03;;;4.90;;
46216;SDS011;47258;59.424;13.482;2024-03-07T07:08:38;8.20;;;4.55;;
46216;SDS011;47258;59.424;13.482;2024-03-07T07:11:04;8.25;;;5.10;;
46216;SDS011;47258;59.424;13.482;2024-03-07T07:13:30;7.45;;;4.22;;
46216;SDS011;47258;59.424;13.482;2024-03-07T07:15:56;7.28;;;4.32;;
46216;SDS011;47258;59.424;13.482;2024-03-07T07:18:22;6.95;;;4.85;;
46216;SDS011;47258;59.424;13.482;2024-03-07T07:20:49;15.27;;;4.72;;
46216;SDS011;47258;59.424;13.482;2024-03-07T07:23:17;9.00;;;5.05;;
46216;SDS011;47258;59.424;13.482;2024-03-07T07:25:45;8.68;;;4.15;;
46216;SDS011;47258;59.424;13.482;2024-03-07T07:28:11;11.55;;;4.75;;
46216;SDS011;47258;59.424;13.482;2024-03-07T07:30:41;5.72;;;4.32;;
46216;SDS011;47258;59.424;13.482;2024-03-07T07:33:14;7.38;;;4.95;;
46216;SDS011;47258;59.424;13.482;2024-03-07T07:35:40;10.13;;;5.18;;
46216;SDS011;47258;59.424;13.482;2024-03-07T07:38:05;9.30;;;4.57;;
46216;SDS011;47258;59.424;13.482;2024-03-07T07:40:32;10.60;;;5.63;;
46216;SDS011;47258;59.424;13.482;2024-03-07T07:42:58;11.05;;;5.10;;
46216;SDS011;47258;59.424;13.482;2024-03-07T07:45:26;8.80;;;4.28;;
46216;SDS011;47258;59.424;13.482;2024-03-07T07:47:52;7.97;;;4.50;;
46216;SDS011;47258;59.424;13.482;2024-03-07T07:50:19;9.18;;;5.40;;
46216;SDS011;47258;59.424;13.482;2024-03-07T07:52:46;7.75;;;4.47;;
46216;SDS011;47258;59.424;13.482;2024-03-07T07:55:15;10.38;;;4.88;;
46216;SDS011;47258;59.424;13.482;2024-03-07T07:57:45;11.73;;;5.18;;
46216;SDS011;47258;59.424;13.482;2024-03-07T08:00:15;10.35;;;4.75;;
46216;SDS011;47258;59.424;13.482;2024-03-07T08:02:54;21.40;;;5.70;;
46216;SDS011;47258;59.424;13.482;2024-03-07T08:05:24;8.30;;;4.63;;
46216;SDS011;47258;59.424;13.482;2024-03-07T08:08:00;9.35;;;4.55;;
46216;SDS011;47258;59.424;13.482;2024-03-07T08:10:31;10.90;;;4.97;;
46216;SDS011;47258;59.424;13.482;2024-03-07T08:12:59;21.00;;;7.93;;
46216;SDS011;47258;59.424;13.482;2024-03-07T08:15:28;4.88;;;3.70;;
46216;SDS011;47258;59.424;13.482;2024-03-07T08:18:01;11.73;;;4.70;;
46216;SDS011;47258;59.424;13.482;2024-03-07T08:20:33;14.43;;;6.35;;
46216;SDS011;47258;59.424;13.482;2024-03-07T08:23:00;8.32;;;4.50;;
46216;SDS011;47258;59.424;13.482;2024-03-07T08:25:27;8.32;;;3.95;;
46216;SDS011;47258;59.424;13.482;2024-03-07T08:27:55;7.68;;;4.57;;
46216;SDS011;47258;59.424;13.482;2024-03-07T08:30:22;5.80;;;3.80;;
46216;SDS011;47258;59.424;13.482;2024-03-07T08:32:50;13.77;;;4.03;;
46216;SDS011;47258;59.424;13.482;2024-03-07T08:35:17;9.20;;;4.40;;
46216;SDS011;47258;59.424;13.482;2024-03-07T08:37:47;5.65;;;3.70;;
46216;SDS011;47258;59.424;13.482;2024-03-07T08:40:23;8.10;;;4.65;;
46216;SDS011;47258;59.424;13.482;2024-03-07T08:42:59;10.60;;;4.60;;
46216;SDS011;47258;59.424;13.482;2024-03-07T08:46:00;11.55;;;4.85;;
46216;SDS011;47258;59.424;13.482;2024-03-07T08:48:33;5.53;;;3.45;;
46216;SDS011;47258;59.424;13.482;2024-03-07T08:52:00;9.52;;;3.90;;
46216;SDS011;47258;59.424;13.482;2024-03-07T08:54:43;5.82;;;3.95;;
46216;SDS011;47258;59.424;13.482;2024-03-07T09:03:54;6.05;;;3.72;;
46216;SDS011;47258;59.424;13.482;2024-03-07T09:06:36;5.60;;;4.20;;
46216;SDS011;47258;59.424;13.482;2024-03-07T09:09:22;5.45;;;4.07;;
46216;SDS011;47258;59.424;13.482;2024-03-07T09:11:55;9.13;;;4.13;;
46216;SDS011;47258;59.424;13.482;2024-03-07T09:14:31;4.35;;;3.40;;
46216;SDS011;47258;59.424;13.482;2024-03-07T09:17:00;5.10;;;3.50;;
46216;SDS011;47258;59.424;13.482;2024-03-07T09:19:49;6.75;;;4.03;;
46216;SDS011;47258;59.424;13.482;2024-03-07T09:22:17;4.13;;;3.05;;
46216;SDS011;47258;59.424;13.482;2024-03-07T09:25:12;8.38;;;3.70;;
46216;SDS011;47258;59.424;13.482;2024-03-07T09:27:57;7.13;;;4.57;;
46216;SDS011;47258;59.424;13.482;2024-03-07T09:30:45;6.10;;;3.60;;
46216;SDS011;47258;59.424;13.482;2024-03-07T09:33:25;13.60;;;3.38;;
46216;SDS011;47258;59.424;13.482;2024-03-07T09:36:20;5.28;;;3.20;;
46216;SDS011;47258;59.424;13.482;2024-03-07T09:38:55;5.35;;;2.67;;
46216;SDS011;47258;59.424;13.482;2024-03-07T09:42:10;11.60;;;3.42;;
46216;SDS011;47258;59.424;13.482;2024-03-07T09:45:00;5.97;;;2.95;;
46216;SDS011;47258;59.424;13.482;2024-03-07T09:47:50;4.80;;;2.95;;
46216;SDS011;47258;59.424;13.482;2024-03-07T09:50:20;4.93;;;2.60;;
46216;SDS011;47258;59.424;13.482;2024-03-07T09:52:53;6.60;;;3.40;;
46216;SDS011;47258;59.424;13.482;2024-03-07T09:55:21;7.32;;;3.08;;
46216;SDS011;47258;59.424;13.482;2024-03-07T09:57:49;4.85;;;2.75;;
46216;SDS011;47258;59.424;13.482;2024-03-07T10:00:19;6.03;;;2.47;;
46216;SDS011;47258;59.424;13.482;2024-03-07T10:02:55;3.15;;;2.85;;
46216;SDS011;47258;59.424;13.482;2024-03-07T10:05:23;3.28;;;2.65;;
46216;SDS011;47258;59.424;13.482;2024-03-07T10:07:52;5.22;;;2.78;;
46216;SDS011;47258;59.424;13.482;2024-03-07T10:10:18;4.95;;;2.45;;
46216;SDS011;47258;59.424;13.482;2024-03-07T10:12:56;7.25;;;2.97;;
46216;SDS011;47258;59.424;13.482;2024-03-07T10:15:30;5.57;;;2.45;;
46216;SDS011;47258;59.424;13.482;2024-03-07T10:17:57;7.50;;;2.60;;
46216;SDS011;47258;59.424;13.482;2024-03-07T10:20:25;3.37;;;2.20;;
46216;SDS011;47258;59.424;13.482;2024-03-07T10:22:52;2.90;;;2.63;;
46216;SDS011;47258;59.424;13.482;2024-03-07T10:25:20;2.50;;;2.17;;
46216;SDS011;47258;59.424;13.482;2024-03-07T10:27:50;2.83;;;2.60;;
46216;SDS011;47258;59.424;13.482;2024-03-07T10:30:17;9.07;;;2.55;;
46216;SDS011;47258;59.424;13.482;2024-03-07T10:32:47;2.63;;;2.38;;
46216;SDS011;47258;59.424;13.482;2024-03-07T10:35:19;1.77;;;1.67;;
46216;SDS011;47258;59.424;13.482;2024-03-07T10:37:46;2.10;;;1.85;;
46216;SDS011;47258;59.424;13.482;2024-03-07T10:40:15;3.27;;;2.77;;
46216;SDS011;47258;59.424;13.482;2024-03-07T10:42:46;4.40;;;2.33;;
46216;SDS011;47258;59.424;13.482;2024-03-07T10:45:21;6.88;;;2.50;;
46216;SDS011;47258;59.424;13.482;2024-03-07T10:48:19;2.67;;;2.00;;
46216;SDS011;47258;59.424;13.482;2024-03-07T10:51:14;3.50;;;2.25;;
46216;SDS011;47258;59.424;13.482;2024-03-07T10:54:05;3.67;;;2.25;;
46216;SDS011;47258;59.424;13.482;2024-03-07T10:56:56;3.17;;;2.00;;
46216;SDS011;47258;59.424;13.482;2024-03-07T10:59:33;9.07;;;2.05;;
46216;SDS011;47258;59.424;13.482;2024-03-07T11:02:14;1.77;;;1.52;;
46216;SDS011;47258;59.424;13.482;2024-03-07T11:04:56;2.50;;;2.20;;
46216;SDS011;47258;59.424;13.482;2024-03-07T11:07:26;2.20;;;2.00;;
46216;SDS011;47258;59.424;13.482;2024-03-07T11:09:54;4.40;;;2.05;;
46216;SDS011;47258;59.424;13.482;2024-03-07T11:12:23;2.95;;;2.50;;
46216;SDS011;47258;59.424;13.482;2024-03-07T11:14:52;2.33;;;1.83;;
46216;SDS011;47258;59.424;13.482;2024-03-07T11:17:21;4.20;;;1.60;;
46216;SDS011;47258;59.424;13.482;2024-03-07T11:19:49;2.78;;;1.90;;
46216;SDS011;47258;59.424;13.482;2024-03-07T11:22:32;2.55;;;2.10;;
46216;SDS011;47258;59.424;13.482;2024-03-07T11:25:02;5.18;;;2.13;;
46216;SDS011;47258;59.424;13.482;2024-03-07T11:27:52;1.80;;;1.70;;
46216;SDS011;47258;59.424;13.482;2024-03-07T11:30:26;2.42;;;2.22;;
46216;SDS011;47258;59.424;13.482;2024-03-07T11:32:53;4.13;;;2.42;;
46216;SDS011;47258;59.424;13.482;2024-03-07T11:35:31;2.88;;;2.25;;
46216;SDS011;47258;59.424;13.482;2024-03-07T11:38:01;3.10;;;2.80;;
46216;SDS011;47258;59.424;13.482;2024-03-07T11:42:56;6.70;;;2.38;;
46216;SDS011;47258;59.424;13.482;2024-03-07T11:45:25;5.85;;;2.33;;
46216;SDS011;47258;59.424;13.482;2024-03-07T11:47:54;2.47;;;1.93;;
46216;SDS011;47258;59.424;13.482;2024-03-07T11:50:37;2.40;;;2.03;;
46216;SDS011;47258;59.424;13.482;2024-03-07T11:53:04;4.68;;;2.30;;
46216;SDS011;47258;59.424;13.482;2024-03-07T11:55:32;1.85;;;1.75;;
46216;SDS011;47258;59.424;13.482;2024-03-07T11:58:11;2.20;;;2.00;;
46216;SDS011;47258;59.424;13.482;2024-03-07T12:00:44;3.50;;;1.58;;
46216;SDS011;47258;59.424;13.482;2024-03-07T12:03:14;1.70;;;1.58;;
46216;SDS011;47258;59.424;13.482;2024-03-07T12:05:46;5.25;;;2.22;;
46216;SDS011;47258;59.424;13.482;2024-03-07T12:08:12;2.70;;;1.88;;
46216;SDS011;47258;59.424;13.482;2024-03-07T12:10:40;1.77;;;1.67;;
46216;SDS011;47258;59.424;13.482;2024-03-07T12:13:26;3.00;;;1.58;;
46216;SDS011;47258;59.424;13.482;2024-03-07T12:16:22;4.38;;;1.75;;
46216;SDS011;47258;59.424;13.482;2024-03-07T12:19:01;1.70;;;1.48;;
46216;SDS011;47258;59.424;13.482;2024-03-07T12:21:42;2.25;;;1.98;;
46216;SDS011;47258;59.424;13.482;2024-03-07T12:24:13;3.58;;;1.50;;
46216;SDS011;47258;59.424;13.482;2024-03-07T12:27:04;1.50;;;1.40;;
46216;SDS011;47258;59.424;13.482;2024-03-07T12:29:40;2.13;;;1.50;;
46216;SDS011;47258;59.424;13.482;2024-03-07T12:32:13;1.38;;;1.27;;
46216;SDS011;47258;59.424;13.482;2024-03-07T12:34:44;3.42;;;1.58;;
46216;SDS011;47258;59.424;13.482;2024-03-07T12:37:14;1.67;;;1.30;;
46216;SDS011;47258;59.424;13.482;2024-03-07T12:39:44;1.70;;;1.20;;
46216;SDS011;47258;59.424;13.482;2024-03-07T12:42:24;1.30;;;1.20;;
46216;SDS011;47258;59.424;13.482;2024-03-07T12:44:53;1.73;;;1.63;;
46216;SDS011;47258;59.424;13.482;2024-03-07T12:47:24;2.50;;;1.70;;
46216;SDS011;47258;59.424;13.482;2024-03-07T12:49:51;2.67;;;1.90;;
46216;SDS011;47258;59.424;13.482;2024-03-07T12:52:25;3.90;;;1.13;;
46216;SDS011;47258;59.424;13.482;2024-03-07T12:54:57;5.57;;;1.88;;
46216;SDS011;47258;59.424;13.482;2024-03-07T12:57:31;1.77;;;1.65;;
46216;SDS011;47258;59.424;13.482;2024-03-07T12:59:57;8.43;;;1.85;;
46216;SDS011;47258;59.424;13.482;2024-03-07T13:02:25;9.38;;;2.05;;
46216;SDS011;47258;59.424;13.482;2024-03-07T13:04:54;3.55;;;1.50;;
46216;SDS011;47258;59.424;13.482;2024-03-07T13:07:21;4.43;;;2.40;;
46216;SDS011;47258;59.424;13.482;2024-03-07T13:09:49;3.75;;;1.95;;
46216;SDS011;47258;59.424;13.482;2024-03-07T13:12:25;2.47;;;2.15;;
46216;SDS011;47258;59.424;13.482;2024-03-07T13:14:54;4.40;;;1.25;;
46216;SDS011;47258;59.424;13.482;2024-03-07T13:17:22;11.32;;;2.03;;
46216;SDS011;47258;59.424;13.482;2024-03-07T13:22:25;5.60;;;1.75;;
46216;SDS011;47258;59.424;13.482;2024-03-07T13:24:53;2.97;;;1.90;;
46216;SDS011;47258;59.424;13.482;2024-03-07T13:27:24;5.10;;;1.92;;
46216;SDS011;47258;59.424;13.482;2024-03-07T13:30:07;4.55;;;1.85;;
46216;SDS011;47258;59.424;13.482;2024-03-07T13:32:56;11.18;;;2.20;;
46216;SDS011;47258;59.424;13.482;2024-03-07T13:35:24;2.08;;;1.90;;
46216;SDS011;47258;59.424;13.482;2024-03-07T13:37:51;5.15;;;2.10;;
46216;SDS011;47258;59.424;13.482;2024-03-07T13:40:20;4.53;;;1.38;;
46216;SDS011;47258;59.424;13.482;2024-03-07T13:42:58;11.52;;;2.35;;
46216;SDS011;47258;59.424;13.482;2024-03-07T13:45:28;4.13;;;2.08;;
46216;SDS011;47258;59.424;13.482;2024-03-07T13:48:04;3.72;;;1.05;;
46216;SDS011;47258;59.424;13.482;2024-03-07T13:50:31;9.60;;;1.67;;
46216;SDS011;47258;59.424;13.482;2024-03-07T13:52:59;3.97;;;1.50;;
46216;SDS011;47258;59.424;13.482;2024-03-07T14:08:33;1.65;;;1.50;;
46216;SDS011;47258;59.424;13.482;2024-03-07T14:29:38;3.15;;;2.45;;
46216;SDS011;47258;59.424;13.482;2024-03-07T14:32:03;3.45;;;2.42;;
46216;SDS011;47258;59.424;13.482;2024-03-07T14:37:31;3.65;;;2.10;;
46216;SDS011;47258;59.424;13.482;2024-03-07T14:40:07;3.33;;;2.15;;
46216;SDS011;47258;59.424;13.482;2024-03-07T14:42:39;7.68;;;3.42;;
46216;SDS011;47258;59.424;13.482;2024-03-07T14:45:20;5.25;;;2.78;;
46216;SDS011;47258;59.424;13.482;2024-03-07T14:47:48;17.55;;;3.90;;
46216;SDS011;47258;59.424;13.482;2024-03-07T14:50:20;6.07;;;4.38;;
46216;SDS011;47258;59.424;13.482;2024-03-07T14:52:47;8.25;;;4.35;;
46216;SDS011;47258;59.424;13.482;2024-03-07T14:55:14;8.73;;;3.35;;
46216;SDS011;47258;59.424;13.482;2024-03-07T14:57:40;6.35;;;3.67;;
46216;SDS011;47258;59.424;13.482;2024-03-07T15:00:08;4.80;;;3.58;;
46216;SDS011;47258;59.424;13.482;2024-03-07T15:02:47;7.38;;;3.72;;
46216;SDS011;47258;59.424;13.482;2024-03-07T15:05:16;10.55;;;4.30;;
46216;SDS011;47258;59.424;13.482;2024-03-07T15:07:47;7.43;;;4.30;;
46216;SDS011;47258;59.424;13.482;2024-03-07T15:10:23;14.25;;;4.90;;
46216;SDS011;47258;59.424;13.482;2024-03-07T15:12:53;3.90;;;3.55;;
46216;SDS011;47258;59.424;13.482;2024-03-07T15:15:20;7.65;;;4.53;;
46216;SDS011;47258;59.424;13.482;2024-03-07T15:17:50;11.95;;;4.28;;
46216;SDS011;47258;59.424;13.482;2024-03-07T15:20:17;12.38;;;3.88;;
46216;SDS011;47258;59.424;13.482;2024-03-07T15:22:48;14.18;;;5.47;;
46216;SDS011;47258;59.424;13.482;2024-03-07T15:25:16;13.13;;;4.97;;
46216;SDS011;47258;59.424;13.482;2024-03-07T15:27:43;13.77;;;4.50;;
46216;SDS011;47258;59.424;13.482;2024-03-07T15:30:11;8.55;;;3.90;;
46216;SDS011;47258;59.424;13.482;2024-03-07T15:32:42;14.15;;;4.63;;
46216;SDS011;47258;59.424;13.482;2024-03-07T15:35:12;5.22;;;4.05;;
46216;SDS011;47258;59.424;13.482;2024-03-07T15:37:48;11.90;;;4.68;;
46216;SDS011;47258;59.424;13.482;2024-03-07T15:40:16;15.05;;;4.93;;
46216;SDS011;47258;59.424;13.482;2024-03-07T15:45:16;21.63;;;4.25;;
46216;SDS011;47258;59.424;13.482;2024-03-07T15:47:48;12.60;;;4.45;;
46216;SDS011;47258;59.424;13.482;2024-03-07T15:52:49;13.50;;;4.80;;
46216;SDS011;47258;59.424;13.482;2024-03-07T15:55:19;11.38;;;4.65;;
46216;SDS011;47258;59.424;13.482;2024-03-07T15:57:53;17.60;;;7.90;;
46216;SDS011;47258;59.424;13.482;2024-03-07T16:00:21;19.58;;;6.97;;
46216;SDS011;47258;59.424;13.482;2024-03-07T16:02:55;14.27;;;5.15;;
46216;SDS011;47258;59.424;13.482;2024-03-07T16:05:25;26.17;;;5.88;;
46216;SDS011;47258;59.424;13.482;2024-03-07T16:07:55;25.63;;;8.25;;
46216;SDS011;47258;59.424;13.482;2024-03-07T16:10:22;33.80;;;6.93;;
46216;SDS011;47258;59.424;13.482;2024-03-07T16:12:58;19.30;;;4.65;;
46216;SDS011;47258;59.424;13.482;2024-03-07T16:15:26;18.50;;;5.82;;
46216;SDS011;47258;59.424;13.482;2024-03-07T16:17:53;22.38;;;5.05;;